createdAt,value
2016-11-26T00:00:51.218Z,88.06
2016-11-26T00:01:59.910Z,87.68
2016-11-26T00:03:08.602Z,87.72
2016-11-26T00:04:17.287Z,87.05
2016-11-26T00:05:25.971Z,87.62
2016-11-26T00:06:34.664Z,87.87
2016-11-26T00:07:45.863Z,87.82
2016-11-26T00:08:54.545Z,88.15
2016-11-26T00:10:03.236Z,87.87
2016-11-26T00:11:11.926Z,87.68
2016-11-26T00:12:20.615Z,88.53
2016-11-26T00:13:29.303Z,88.34
2016-11-26T00:14:37.993Z,87.91
2016-11-26T00:15:46.675Z,87.82
2016-11-26T00:16:55.376Z,87.82
2016-11-26T00:18:04.066Z,86.96
2016-11-26T00:19:12.769Z,87.05
2016-11-26T00:20:21.456Z,86.39
2016-11-26T00:21:30.147Z,86.87
2016-11-26T00:22:38.840Z,87.34
2016-11-26T00:23:47.530Z,87.62
2016-11-26T00:24:56.263Z,87.77
2016-11-26T00:26:05.265Z,88.1
2016-11-26T00:27:13.989Z,87.72
2016-11-26T00:28:22.677Z,87.77
2016-11-26T00:29:31.371Z,87.87
2016-11-26T00:30:40.411Z,87.87
2016-11-26T00:31:49.098Z,87.87
2016-11-26T00:32:57.787Z,88.43
2016-11-26T00:34:06.478Z,88.81
2016-11-26T00:35:15.171Z,89.1
2016-11-26T00:36:23.857Z,89.1
2016-11-26T00:37:32.539Z,89.29
2016-11-26T00:38:41.230Z,89
2016-11-26T00:39:49.913Z,89
2016-11-26T00:40:58.599Z,89.39
2016-11-26T00:42:07.290Z,89.39
2016-11-26T00:43:15.981Z,89.67
2016-11-26T00:44:24.670Z,89.2
2016-11-26T00:45:33.353Z,89.2
2016-11-26T00:46:42.042Z,89.2
2016-11-26T00:47:50.733Z,89.2
2016-11-26T00:48:59.438Z,89.2
2016-11-26T00:50:08.451Z,87.87
2016-11-26T00:51:17.134Z,87.72
2016-11-26T00:52:25.852Z,87.72
2016-11-26T00:53:34.542Z,87.24
2016-11-26T00:54:43.230Z,87.15
2016-11-26T00:55:51.918Z,87.43
2016-11-26T00:57:00.919Z,86.96
2016-11-26T00:58:09.921Z,87.24
2016-11-26T00:59:18.617Z,87.43
2016-11-26T01:00:27.301Z,87.82
2016-11-26T01:01:35.991Z,87.34
2016-11-26T01:02:44.682Z,87.15
2016-11-26T01:03:53.372Z,87.43
2016-11-26T01:05:02.090Z,86.77
2016-11-26T01:06:10.780Z,86.68
2016-11-26T01:07:19.466Z,86.68
2016-11-26T01:08:28.159Z,86.58
2016-11-26T01:09:36.887Z,86.11
2016-11-26T01:10:45.586Z,86.87
2016-11-26T01:11:54.283Z,87.05
2016-11-26T01:13:02.978Z,87.72
2016-11-26T01:14:11.671Z,87.87
2016-11-26T01:15:20.360Z,87.91
2016-11-26T01:16:29.052Z,88.53
2016-11-26T01:17:37.741Z,87.87
2016-11-26T01:18:46.428Z,87.77
2016-11-26T01:19:55.116Z,88.15
2016-11-26T01:21:03.809Z,88.91
2016-11-26T01:22:12.526Z,88.91
2016-11-26T01:23:21.213Z,88.62
2016-11-26T01:24:29.908Z,88.62
2016-11-26T01:25:38.949Z,89.1
2016-11-26T01:26:47.638Z,89.1
2016-11-26T01:27:56.331Z,88.91
2016-11-26T01:29:05.063Z,89.48
2016-11-26T01:30:13.754Z,88.62
2016-11-26T01:31:22.441Z,87.87
2016-11-26T01:32:31.125Z,87.62
2016-11-26T01:33:39.815Z,86.96
2016-11-26T01:34:48.512Z,86.3
2016-11-26T01:35:57.201Z,86.58
2016-11-26T01:37:05.888Z,86.68
2016-11-26T01:38:14.581Z,87.43
2016-11-26T01:39:23.273Z,86.77
2016-11-26T01:40:31.965Z,86.49
2016-11-26T01:41:40.684Z,86.39
2016-11-26T01:42:49.370Z,86.77
2016-11-26T01:43:58.063Z,86.68
2016-11-26T01:45:06.752Z,86.77
2016-11-26T01:46:15.467Z,86.58
2016-11-26T01:47:24.156Z,86.39
2016-11-26T01:48:32.846Z,86.49
2016-11-26T01:49:41.561Z,86.3
2016-11-26T01:50:50.275Z,86.11
2016-11-26T01:51:58.962Z,86.2
2016-11-26T01:53:07.964Z,85.72
2016-11-26T01:54:16.654Z,85.91
2016-11-26T01:55:25.342Z,86.39
2016-11-26T01:56:34.035Z,86.68
2016-11-26T01:57:42.727Z,86.68
2016-11-26T01:58:51.412Z,86.96
2016-11-26T02:00:00.107Z,87.34
2016-11-26T02:01:08.792Z,87.05
2016-11-26T02:02:17.488Z,86.77
2016-11-26T02:03:26.179Z,86.01
2016-11-26T02:04:34.872Z,85.91
2016-11-26T02:05:43.562Z,85.53
2016-11-26T02:06:52.281Z,85.25
2016-11-26T02:08:00.976Z,84.53
2016-11-26T02:09:09.667Z,84.53
2016-11-26T02:10:18.358Z,84.59
2016-11-26T02:11:27.048Z,84.87
2016-11-26T02:12:35.737Z,84.68
2016-11-26T02:13:44.431Z,84.87
2016-11-26T02:14:53.123Z,84.49
2016-11-26T02:16:01.815Z,84.63
2016-11-26T02:17:10.504Z,84.11
2016-11-26T02:18:19.189Z,84.44
2016-11-26T02:19:27.883Z,84.11
2016-11-26T02:20:36.576Z,84.06
2016-11-26T02:21:45.265Z,84.53
2016-11-26T02:22:53.957Z,84.34
2016-11-26T02:24:02.653Z,84.11
2016-11-26T02:25:11.370Z,83.73
2016-11-26T02:26:20.056Z,84.3
2016-11-26T02:27:28.775Z,84.49
2016-11-26T02:28:37.467Z,84.11
2016-11-26T02:29:46.161Z,84.3
2016-11-26T02:30:54.852Z,84.4
2016-11-26T02:32:03.540Z,84.59
2016-11-26T02:33:12.228Z,84.49
2016-11-26T02:34:20.924Z,85.06
2016-11-26T02:35:29.634Z,85.25
2016-11-26T02:36:38.329Z,85.16
2016-11-26T02:37:47.015Z,84.87
2016-11-26T02:38:55.701Z,85.53
2016-11-26T02:40:04.393Z,84.4
2016-11-26T02:41:13.081Z,84.3
2016-11-26T02:42:21.773Z,84.3
2016-11-26T02:43:30.773Z,84.11
2016-11-26T02:44:39.464Z,84.11
2016-11-26T02:45:48.159Z,84.21
2016-11-26T02:46:56.853Z,84.16
2016-11-26T02:48:05.541Z,84.11
2016-11-26T02:49:14.231Z,83.54
2016-11-26T02:50:22.921Z,83.39
2016-11-26T02:51:31.610Z,83.97
2016-11-26T02:52:40.622Z,83.92
2016-11-26T02:53:49.310Z,83.83
2016-11-26T02:54:58.001Z,85.06
2016-11-26T02:56:06.696Z,84.97
2016-11-26T02:57:15.389Z,85.63
2016-11-26T02:58:24.079Z,85.82
2016-11-26T02:59:32.771Z,85.63
2016-11-26T03:00:41.462Z,86.11
2016-11-26T03:01:50.169Z,86.25
2016-11-26T03:02:58.857Z,86.82
2016-11-26T03:04:07.554Z,86.63
2016-11-26T03:05:16.558Z,87.3
2016-11-26T03:06:25.252Z,87.58
2016-11-26T03:07:33.941Z,87.2
2016-11-26T03:08:42.630Z,86.91
2016-11-26T03:09:51.315Z,86.63
2016-11-26T03:11:00.003Z,86.54
2016-11-26T03:12:08.699Z,86.54
2016-11-26T03:13:17.419Z,86.63
2016-11-26T03:14:26.111Z,86.72
2016-11-26T03:15:34.838Z,86.72
2016-11-26T03:16:43.526Z,86.25
2016-11-26T03:17:52.217Z,86.16
2016-11-26T03:19:00.942Z,86.16
2016-11-26T03:20:09.627Z,85.97
2016-11-26T03:21:18.310Z,86.16
2016-11-26T03:22:26.997Z,86.16
2016-11-26T03:23:35.689Z,85.59
2016-11-26T03:24:44.378Z,85.4
2016-11-26T03:25:53.384Z,85.11
2016-11-26T03:27:02.073Z,85.02
2016-11-26T03:28:10.767Z,85.02
2016-11-26T03:29:19.772Z,84.55
2016-11-26T03:30:28.460Z,84.83
2016-11-26T03:31:37.155Z,84.64
2016-11-26T03:32:45.845Z,83.22
2016-11-26T03:33:54.538Z,82.65
2016-11-26T03:35:03.228Z,81.6
2016-11-26T03:36:11.918Z,80.46
2016-11-26T03:37:20.609Z,80.41
2016-11-26T03:38:29.320Z,78.13
2016-11-26T03:39:38.010Z,78.42
2016-11-26T03:40:46.702Z,77.51
2016-11-26T03:41:55.392Z,77.03
2016-11-26T03:43:04.083Z,76.93
2016-11-26T03:44:12.775Z,76.18
2016-11-26T03:45:21.466Z,76.27
2016-11-26T03:46:30.495Z,75.7
2016-11-26T03:47:39.188Z,74.94
2016-11-26T03:48:47.875Z,74.27
2016-11-26T03:49:56.879Z,74.08
2016-11-26T03:51:05.599Z,73.52
2016-11-26T03:52:14.286Z,73.42
2016-11-26T03:53:23.007Z,73.33
2016-11-26T03:54:31.698Z,72.38
2016-11-26T03:55:40.386Z,72.7
2016-11-26T03:56:49.080Z,72.41
2016-11-26T03:57:57.771Z,71.56
2016-11-26T03:59:06.496Z,71.37
2016-11-26T04:00:15.188Z,72.41
2016-11-26T04:01:23.876Z,72.38
2016-11-26T04:02:32.615Z,72.09
2016-11-26T04:03:41.309Z,71.9
2016-11-26T04:04:50.003Z,71.9
2016-11-26T04:05:58.698Z,71.14
2016-11-26T04:07:07.396Z,70.76
2016-11-26T04:08:16.090Z,70.67
2016-11-26T04:09:24.787Z,70.38
2016-11-26T04:10:33.479Z,69.81
2016-11-26T04:11:42.164Z,69.53
2016-11-26T04:12:50.854Z,68.67
2016-11-26T04:13:59.543Z,68.48
2016-11-26T04:15:08.234Z,68.23
2016-11-26T04:16:16.931Z,68.23
2016-11-26T04:17:25.652Z,67.47
2016-11-26T04:18:34.361Z,67.94
2016-11-26T04:19:43.050Z,68.33
2016-11-26T04:20:51.736Z,68.39
2016-11-26T04:22:00.433Z,68.48
2016-11-26T04:23:09.121Z,68.67
2016-11-26T04:24:17.813Z,68.67
2016-11-26T04:25:26.501Z,68.01
2016-11-26T04:26:35.189Z,68.01
2016-11-26T04:27:43.880Z,67.53
2016-11-26T04:28:52.578Z,68.01
2016-11-26T04:30:01.274Z,67.91
2016-11-26T04:31:09.969Z,67.44
2016-11-26T04:32:18.969Z,67.25
2016-11-26T04:33:27.658Z,67.25
2016-11-26T04:34:36.351Z,66.58
2016-11-26T04:35:45.042Z,66.77
2016-11-26T04:36:54.043Z,67.34
2016-11-26T04:38:02.738Z,67.44
2016-11-26T04:39:11.429Z,67.34
2016-11-26T04:40:20.119Z,67.44
2016-11-26T04:41:28.810Z,67.34
2016-11-26T04:42:37.500Z,67.82
2016-11-26T04:43:46.190Z,67.82
2016-11-26T04:44:54.889Z,68.01
2016-11-26T04:46:03.578Z,67.91
2016-11-26T04:47:12.277Z,68.29
2016-11-26T04:48:20.965Z,68.1
2016-11-26T04:49:29.656Z,68.48
2016-11-26T04:50:38.340Z,67.91
2016-11-26T04:51:47.024Z,68.19
2016-11-26T04:52:55.719Z,68.29
2016-11-26T04:54:04.415Z,68.86
2016-11-26T04:55:13.106Z,68.96
2016-11-26T04:56:21.796Z,69.62
2016-11-26T04:57:30.483Z,69.96
2016-11-26T04:58:39.167Z,70.35
2016-11-26T04:59:47.857Z,69.68
2016-11-26T05:00:56.550Z,68.26
2016-11-26T05:02:05.244Z,68.92
2016-11-26T05:03:13.933Z,68.67
2016-11-26T05:04:22.623Z,68.54
2016-11-26T05:05:31.313Z,68.35
2016-11-26T05:06:40.321Z,68.07
2016-11-26T05:07:49.015Z,68.07
2016-11-26T05:08:57.746Z,67.91
2016-11-26T05:10:06.432Z,68.64
2016-11-26T05:11:15.125Z,67.97
2016-11-26T05:12:23.818Z,67.79
2016-11-26T05:13:32.512Z,67.31
2016-11-26T05:14:41.204Z,67.25
2016-11-26T05:15:49.894Z,67.21
2016-11-26T05:16:58.584Z,67.63
2016-11-26T05:18:07.279Z,66.58
2016-11-26T05:19:15.965Z,65.35
2016-11-26T05:20:24.653Z,65.19
2016-11-26T05:21:33.333Z,65.54
2016-11-26T05:22:42.020Z,64.72
2016-11-26T05:23:50.714Z,64.62
2016-11-26T05:24:59.411Z,63.95
2016-11-26T05:26:08.097Z,63.76
2016-11-26T05:27:16.793Z,63.86
2016-11-26T05:28:25.511Z,64.14
2016-11-26T05:29:34.198Z,65
2016-11-26T05:30:43.208Z,64.9
2016-11-26T05:31:51.906Z,64.43
2016-11-26T05:33:00.593Z,64.14
2016-11-26T05:34:09.385Z,64.62
2016-11-26T05:35:18.076Z,64.53
2016-11-26T05:36:26.770Z,64.62
2016-11-26T05:37:35.458Z,64.34
2016-11-26T05:38:44.152Z,64.53
2016-11-26T05:39:52.860Z,64.05
2016-11-26T05:41:01.548Z,64.14
2016-11-26T05:42:10.239Z,64.81
2016-11-26T05:43:18.928Z,64.59
2016-11-26T05:44:27.622Z,63.67
2016-11-26T05:45:36.310Z,62.62
2016-11-26T05:46:45.006Z,63.1
2016-11-26T05:47:53.699Z,63.48
2016-11-26T05:49:02.392Z,63.76
2016-11-26T05:50:11.400Z,64.02
2016-11-26T05:51:20.093Z,63.45
2016-11-26T05:52:28.784Z,63.95
2016-11-26T05:53:37.469Z,63.67
2016-11-26T05:54:46.159Z,63.95
2016-11-26T05:55:54.849Z,63.73
2016-11-26T05:57:03.546Z,63.86
2016-11-26T05:58:12.234Z,64.34
2016-11-26T05:59:20.926Z,63.64
2016-11-26T06:00:29.612Z,64.11
2016-11-26T06:01:38.299Z,64.3
2016-11-26T06:02:47.011Z,64.49
2016-11-26T06:03:55.698Z,65.54
2016-11-26T06:05:04.392Z,65.35
2016-11-26T06:06:13.090Z,65.35
2016-11-26T06:07:21.780Z,65.44
2016-11-26T06:08:30.468Z,65.44
2016-11-26T06:09:39.196Z,65.35
2016-11-26T06:10:47.886Z,65.35
2016-11-26T06:11:56.579Z,65.25
2016-11-26T06:13:05.269Z,65.54
2016-11-26T06:14:13.957Z,65.63
2016-11-26T06:15:22.641Z,65.82
2016-11-26T06:16:31.339Z,66.01
2016-11-26T06:17:40.031Z,66.96
2016-11-26T06:18:48.717Z,66.77
2016-11-26T06:19:57.418Z,67.02
2016-11-26T06:21:06.115Z,67.12
2016-11-26T06:22:14.829Z,67.88
2016-11-26T06:23:23.516Z,67.59
2016-11-26T06:24:32.208Z,67.63
2016-11-26T06:25:40.903Z,66.77
2016-11-26T06:26:49.594Z,66.64
2016-11-26T06:27:58.287Z,66.01
2016-11-26T06:29:06.981Z,66.01
2016-11-26T06:30:15.671Z,65.73
2016-11-26T06:31:24.356Z,65.92
2016-11-26T06:32:33.050Z,65.92
2016-11-26T06:33:41.741Z,66.01
2016-11-26T06:34:50.428Z,66.2
2016-11-26T06:35:59.118Z,66.01
2016-11-26T06:37:07.805Z,66.2
2016-11-26T06:38:16.497Z,66.2
2016-11-26T06:39:25.187Z,66.3
2016-11-26T06:40:33.883Z,66.3
2016-11-26T06:41:42.570Z,66.96
2016-11-26T06:42:51.260Z,66.3
2016-11-26T06:43:59.947Z,66.77
2016-11-26T06:45:08.640Z,67.21
2016-11-26T06:46:17.355Z,66.74
2016-11-26T06:47:26.046Z,66.77
2016-11-26T06:48:34.733Z,66.58
2016-11-26T06:49:43.426Z,67.15
2016-11-26T06:50:52.120Z,67.44
2016-11-26T06:52:00.809Z,67.88
2016-11-26T06:53:09.501Z,67.97
2016-11-26T06:54:18.196Z,67.97
2016-11-26T06:55:26.882Z,67.69
2016-11-26T06:56:35.570Z,67.88
2016-11-26T06:57:44.256Z,67.59
2016-11-26T06:58:52.949Z,67.72
2016-11-26T07:00:01.642Z,67.06
2016-11-26T07:01:10.351Z,67.44
2016-11-26T07:02:19.048Z,67.53
2016-11-26T07:03:27.738Z,68.1
2016-11-26T07:04:36.432Z,67.06
2016-11-26T07:05:45.127Z,67.53
2016-11-26T07:06:53.817Z,66.49
2016-11-26T07:08:02.511Z,65.92
2016-11-26T07:09:11.520Z,66.01
2016-11-26T07:10:20.213Z,65.82
2016-11-26T07:11:28.900Z,64.4
2016-11-26T07:12:37.913Z,64.34
2016-11-26T07:13:46.598Z,64.14
2016-11-26T07:14:55.293Z,64.24
2016-11-26T07:16:03.983Z,64.14
2016-11-26T07:17:12.675Z,63.76
2016-11-26T07:18:21.360Z,63.86
2016-11-26T07:19:30.054Z,62.72
2016-11-26T07:20:38.746Z,63.01
2016-11-26T07:21:47.434Z,62.24
2016-11-26T07:22:56.124Z,61.87
2016-11-26T07:24:04.812Z,62.24
2016-11-26T07:25:13.821Z,62.53
2016-11-26T07:26:22.508Z,62.91
2016-11-26T07:27:31.198Z,63.64
2016-11-26T07:28:39.889Z,63.92
2016-11-26T07:29:48.580Z,62.69
2016-11-26T07:30:57.267Z,62.4
2016-11-26T07:32:06.277Z,62.81
2016-11-26T07:33:14.965Z,62.97
2016-11-26T07:34:23.651Z,63.01
2016-11-26T07:35:32.335Z,62.88
2016-11-26T07:36:41.031Z,62.59
2016-11-26T07:37:49.718Z,62.69
2016-11-26T07:38:58.718Z,62.21
2016-11-26T07:40:07.403Z,61.93
2016-11-26T07:41:16.093Z,61.93
2016-11-26T07:42:24.780Z,61.65
2016-11-26T07:43:33.466Z,60.5
2016-11-26T07:44:42.156Z,60.25
2016-11-26T07:45:50.846Z,59.77
2016-11-26T07:46:59.568Z,60.16
2016-11-26T07:48:08.256Z,60.44
2016-11-26T07:49:16.946Z,60.44
2016-11-26T07:50:25.637Z,59.65
2016-11-26T07:51:34.325Z,60.35
2016-11-26T07:52:43.024Z,60.22
2016-11-26T07:53:52.024Z,60.69
2016-11-26T07:55:00.711Z,61.45
2016-11-26T07:56:09.432Z,61.45
2016-11-26T07:57:18.138Z,61.65
2016-11-26T07:58:26.858Z,61.45
2016-11-26T07:59:35.551Z,61.65
2016-11-26T08:00:44.245Z,61.45
2016-11-26T08:01:52.931Z,61.55
2016-11-26T08:03:01.652Z,61.65
2016-11-26T08:04:10.345Z,61.55
2016-11-26T08:05:19.063Z,61.83
2016-11-26T08:06:27.756Z,62.5
2016-11-26T08:07:36.452Z,62.69
2016-11-26T08:08:45.141Z,62.69
2016-11-26T08:09:53.834Z,62.02
2016-11-26T08:11:02.524Z,62.4
2016-11-26T08:12:11.214Z,62.21
2016-11-26T08:13:19.901Z,62.4
2016-11-26T08:14:28.592Z,62.88
2016-11-26T08:15:37.280Z,61.83
2016-11-26T08:16:45.969Z,62.21
2016-11-26T08:17:54.660Z,62.02
2016-11-26T08:19:03.348Z,61.83
2016-11-26T08:20:12.053Z,61.74
2016-11-26T08:21:20.745Z,61.55
2016-11-26T08:22:29.439Z,61.65
2016-11-26T08:23:38.123Z,61.74
2016-11-26T08:24:46.813Z,61.83
2016-11-26T08:25:55.506Z,61.26
2016-11-26T08:27:04.199Z,61.36
2016-11-26T08:28:12.888Z,61.55
2016-11-26T08:29:21.571Z,60.79
2016-11-26T08:30:30.257Z,61.45
2016-11-26T08:31:38.947Z,61.83
2016-11-26T08:32:47.638Z,61.55
2016-11-26T08:33:56.327Z,61.26
2016-11-26T08:35:05.023Z,60.5
2016-11-26T08:36:13.711Z,60.6
2016-11-26T08:37:22.401Z,60.41
2016-11-26T08:38:31.089Z,60.79
2016-11-26T08:39:39.781Z,60.31
2016-11-26T08:40:48.471Z,59.93
2016-11-26T08:41:57.163Z,60.31
2016-11-26T08:43:05.857Z,60.31
2016-11-26T08:44:14.546Z,59.84
2016-11-26T08:45:23.239Z,59.84
2016-11-26T08:46:31.929Z,60.03
2016-11-26T08:47:40.625Z,60.03
2016-11-26T08:48:49.320Z,59.74
2016-11-26T08:49:58.013Z,60.13
2016-11-26T08:51:06.707Z,59.93
2016-11-26T08:52:15.711Z,59.17
2016-11-26T08:53:24.399Z,58.8
2016-11-26T08:54:33.415Z,58.98
2016-11-26T08:55:42.100Z,59.08
2016-11-26T08:56:50.789Z,59.46
2016-11-26T08:57:59.478Z,59.08
2016-11-26T08:59:08.164Z,58.98
2016-11-26T09:00:16.903Z,58.98
2016-11-26T09:01:25.596Z,58.41
2016-11-26T09:02:34.285Z,58.41
2016-11-26T09:03:42.975Z,58.32
2016-11-26T09:04:51.668Z,58.51
2016-11-26T09:06:00.361Z,58.22
2016-11-26T09:07:09.089Z,58.41
2016-11-26T09:08:17.774Z,58.32
2016-11-26T09:09:26.464Z,58.41
2016-11-26T09:10:35.148Z,58.03
2016-11-26T09:11:43.842Z,58.61
2016-11-26T09:12:52.540Z,58.61
2016-11-26T09:14:01.229Z,57.84
2016-11-26T09:15:09.921Z,57.75
2016-11-26T09:16:18.606Z,57.46
2016-11-26T09:17:27.302Z,57.37
2016-11-26T09:18:35.999Z,57.37
2016-11-26T09:19:44.689Z,57.94
2016-11-26T09:20:53.381Z,57.56
2016-11-26T09:22:02.073Z,58.13
2016-11-26T09:23:10.763Z,58.32
2016-11-26T09:24:19.477Z,57.75
2016-11-26T09:25:28.167Z,58.7
2016-11-26T09:26:36.859Z,57.94
2016-11-26T09:27:45.555Z,57.84
2016-11-26T09:28:54.245Z,57.84
2016-11-26T09:30:02.935Z,57.46
2016-11-26T09:31:11.629Z,58.51
2016-11-26T09:32:20.323Z,57.46
2016-11-26T09:33:29.007Z,58.13
2016-11-26T09:34:37.695Z,57.56
2016-11-26T09:35:46.384Z,57.46
2016-11-26T09:36:55.080Z,57.18
2016-11-26T09:38:03.772Z,56.99
2016-11-26T09:39:12.470Z,56.99
2016-11-26T09:40:21.168Z,56.8
2016-11-26T09:41:29.859Z,57.28
2016-11-26T09:42:38.552Z,57.56
2016-11-26T09:43:47.243Z,57.37
2016-11-26T09:44:55.952Z,57.46
2016-11-26T09:46:04.646Z,57.94
2016-11-26T09:47:13.343Z,57.46
2016-11-26T09:48:22.032Z,57.65
2016-11-26T09:49:30.721Z,58
2016-11-26T09:50:39.410Z,57.56
2016-11-26T09:51:48.096Z,56.8
2016-11-26T09:52:56.789Z,56.89
2016-11-26T09:54:05.476Z,56.89
2016-11-26T09:55:14.164Z,57.46
2016-11-26T09:56:22.882Z,57.18
2016-11-26T09:57:31.569Z,56.8
2016-11-26T09:58:40.259Z,56.89
2016-11-26T09:59:48.951Z,56.32
2016-11-26T10:00:57.641Z,56.8
2016-11-26T10:02:06.332Z,57.37
2016-11-26T10:03:15.349Z,57.56
2016-11-26T10:04:24.068Z,57.37
2016-11-26T10:05:32.758Z,57.65
2016-11-26T10:06:41.445Z,57.18
2016-11-26T10:07:50.141Z,57.65
2016-11-26T10:08:58.832Z,57.65
2016-11-26T10:10:07.519Z,57.81
2016-11-26T10:11:16.208Z,57.62
2016-11-26T10:12:25.237Z,58.58
2016-11-26T10:13:33.926Z,57.91
2016-11-26T10:14:42.615Z,58.2
2016-11-26T10:15:51.338Z,57.62
2016-11-26T10:17:00.028Z,58.61
2016-11-26T10:18:09.032Z,58.2
2016-11-26T10:19:17.723Z,58
2016-11-26T10:20:26.414Z,57.43
2016-11-26T10:21:35.105Z,58.22
2016-11-26T10:22:43.797Z,58.1
2016-11-26T10:23:52.485Z,57.91
2016-11-26T10:25:01.173Z,58.2
2016-11-26T10:26:09.862Z,58.48
2016-11-26T10:27:18.554Z,57.62
2016-11-26T10:28:27.266Z,56.7
2016-11-26T10:29:35.958Z,55.76
2016-11-26T10:30:44.649Z,55.28
2016-11-26T10:31:53.339Z,55.21
2016-11-26T10:33:02.029Z,54.74
2016-11-26T10:34:10.721Z,54.93
2016-11-26T10:35:19.412Z,54.55
2016-11-26T10:36:28.099Z,53.97
2016-11-26T10:37:36.788Z,54.07
2016-11-26T10:38:45.481Z,54.26
2016-11-26T10:39:54.173Z,53.88
2016-11-26T10:41:02.865Z,53.78
2016-11-26T10:42:11.554Z,53.22
2016-11-26T10:43:20.241Z,53.69
2016-11-26T10:44:28.933Z,53.41
2016-11-26T10:45:37.626Z,53.78
2016-11-26T10:46:46.319Z,53.12
2016-11-26T10:47:55.008Z,53.41
2016-11-26T10:49:03.699Z,52.64
2016-11-26T10:50:12.395Z,53.12
2016-11-26T10:51:21.088Z,53.12
2016-11-26T10:52:29.782Z,52.76
2016-11-26T10:53:38.475Z,52.2
2016-11-26T10:54:47.163Z,52.1
2016-11-26T10:55:55.858Z,52.29
2016-11-26T10:57:04.550Z,51.91
2016-11-26T10:58:13.241Z,52.01
2016-11-26T10:59:21.938Z,51.43
2016-11-26T11:00:30.630Z,51.25
2016-11-26T11:01:39.324Z,51.82
2016-11-26T11:02:48.019Z,50.39
2016-11-26T11:03:56.709Z,50.1
2016-11-26T11:05:05.416Z,50.2
2016-11-26T11:06:14.115Z,49.91
2016-11-26T11:07:22.808Z,50.39
2016-11-26T11:08:31.501Z,49.63
2016-11-26T11:09:40.198Z,49.06
2016-11-26T11:10:48.890Z,48.61
2016-11-26T11:11:57.581Z,48.51
2016-11-26T11:13:06.277Z,47.94
2016-11-26T11:14:15.624Z,48.03
2016-11-26T11:15:24.638Z,47.66
2016-11-26T11:16:33.333Z,46.89
2016-11-26T11:17:42.027Z,46.23
2016-11-26T11:18:50.724Z,46.04
2016-11-26T11:19:59.419Z,46.14
2016-11-26T11:21:08.113Z,45.18
2016-11-26T11:22:16.809Z,44.9
2016-11-26T11:23:25.503Z,44.8
2016-11-26T11:24:34.212Z,43.76
2016-11-26T11:25:42.908Z,43.68
2016-11-26T11:26:51.597Z,43.02
2016-11-26T11:28:00.300Z,43.11
2016-11-26T11:29:08.997Z,43.11
2016-11-26T11:30:17.693Z,42.64
2016-11-26T11:31:26.389Z,42.64
2016-11-26T11:32:35.096Z,42.07
2016-11-26T11:33:43.812Z,42.35
2016-11-26T11:34:52.507Z,42.04
2016-11-26T11:36:01.208Z,41.69
2016-11-26T11:37:09.910Z,40.64
2016-11-26T11:38:18.600Z,40.92
2016-11-26T11:39:27.294Z,40.64
2016-11-26T11:40:35.988Z,40.83
2016-11-26T11:41:44.683Z,40.35
2016-11-26T11:42:53.375Z,40.09
2016-11-26T11:44:02.070Z,40.18
2016-11-26T11:45:10.764Z,39.14
2016-11-26T11:46:19.456Z,40.09
2016-11-26T11:47:28.155Z,39.42
2016-11-26T11:48:36.852Z,39.02
2016-11-26T11:49:45.575Z,38.75
2016-11-26T11:50:54.268Z,39.04
2016-11-26T11:52:02.959Z,38.85
2016-11-26T11:53:11.651Z,39.42
2016-11-26T11:54:20.345Z,39.23
2016-11-26T11:55:29.057Z,38.09
2016-11-26T11:56:37.755Z,38.49
2016-11-26T11:57:46.453Z,38.49
2016-11-26T11:58:55.152Z,38.68
2016-11-26T12:00:04.174Z,38.49
2016-11-26T12:01:12.875Z,37.63
2016-11-26T12:02:21.572Z,37.73
2016-11-26T12:03:30.266Z,37.55
2016-11-26T12:04:39.019Z,36.77
2016-11-26T12:05:47.710Z,36.96
2016-11-26T12:06:56.411Z,37.54
2016-11-26T12:08:05.106Z,36.98
2016-11-26T12:09:13.798Z,36.03
2016-11-26T12:10:22.494Z,36.12
2016-11-26T12:11:31.191Z,36.39
2016-11-26T12:12:39.886Z,35.93
2016-11-26T12:13:48.578Z,36.01
2016-11-26T12:14:57.272Z,35.91
2016-11-26T12:16:05.969Z,36.39
2016-11-26T12:17:14.663Z,35.93
2016-11-26T12:18:23.355Z,35.55
2016-11-26T12:19:32.048Z,35.28
2016-11-26T12:20:40.744Z,35.08
2016-11-26T12:21:49.441Z,35.27
2016-11-26T12:22:58.134Z,35.91
2016-11-26T12:24:07.147Z,35.74
2016-11-26T12:25:15.839Z,36.03
2016-11-26T12:26:24.532Z,36.22
2016-11-26T12:27:33.250Z,35.84
2016-11-26T12:28:42.278Z,35.74
2016-11-26T12:29:50.974Z,35.82
2016-11-26T12:30:59.668Z,35.84
2016-11-26T12:32:08.364Z,35.36
2016-11-26T12:33:17.060Z,35.74
2016-11-26T12:34:25.751Z,35.27
2016-11-26T12:35:34.441Z,35.17
2016-11-26T12:36:43.133Z,35.53
2016-11-26T12:37:51.875Z,35.72
2016-11-26T12:39:00.583Z,35.53
2016-11-26T12:40:09.281Z,34.87
2016-11-26T12:41:17.977Z,34.39
2016-11-26T12:42:26.668Z,34.87
2016-11-26T12:43:35.365Z,34.39
2016-11-26T12:44:44.064Z,34.79
2016-11-26T12:45:52.757Z,34.79
2016-11-26T12:47:01.484Z,34.67
2016-11-26T12:48:10.185Z,34.96
2016-11-26T12:49:18.882Z,34.87
2016-11-26T12:50:27.575Z,34.96
2016-11-26T12:51:36.274Z,34.87
2016-11-26T12:52:44.962Z,34.87
2016-11-26T12:53:53.660Z,34.3
2016-11-26T12:55:02.707Z,34.22
2016-11-26T12:56:11.403Z,33.55
2016-11-26T12:57:20.102Z,34.03
2016-11-26T12:58:28.834Z,33.64
2016-11-26T12:59:37.545Z,33.18
2016-11-26T13:00:46.240Z,34.03
2016-11-26T13:01:54.942Z,33.36
2016-11-26T13:03:03.640Z,33.26
2016-11-26T13:04:12.333Z,33.74
2016-11-26T13:05:21.026Z,34.22
2016-11-26T13:06:29.763Z,35.63
2016-11-26T13:07:38.470Z,37.42
2016-11-26T13:08:47.161Z,39.09
2016-11-26T13:09:55.859Z,41.17
2016-11-26T13:11:04.591Z,42.76
2016-11-26T13:12:13.290Z,44.35
2016-11-26T13:13:21.986Z,44.64
2016-11-26T13:14:31.033Z,43.6
2016-11-26T13:15:39.728Z,44.35
2016-11-26T13:16:48.464Z,45.02
2016-11-26T13:17:57.159Z,44.81
2016-11-26T13:19:05.878Z,45.76
2016-11-26T13:20:14.570Z,45.76
2016-11-26T13:21:23.259Z,46.42
2016-11-26T13:22:31.984Z,46.33
2016-11-26T13:23:40.682Z,47.37
2016-11-26T13:24:49.374Z,47.25
2016-11-26T13:25:58.060Z,47.73
2016-11-26T13:27:06.760Z,47.92
2016-11-26T13:28:15.455Z,47.53
2016-11-26T13:29:24.143Z,47.82
2016-11-26T13:30:32.829Z,47.92
2016-11-26T13:31:41.518Z,47.92
2016-11-26T13:32:50.207Z,47.92
2016-11-26T13:33:58.899Z,48.49
2016-11-26T13:35:07.608Z,48.49
2016-11-26T13:36:16.307Z,48.77
2016-11-26T13:37:24.998Z,48.96
2016-11-26T13:38:33.684Z,48.96
2016-11-26T13:39:42.372Z,48.77
2016-11-26T13:40:51.114Z,48.77
2016-11-26T13:41:59.808Z,49.15
2016-11-26T13:43:08.498Z,49.43
2016-11-26T13:44:17.195Z,49.72
2016-11-26T13:45:25.882Z,49.72
2016-11-26T13:46:34.575Z,49.43
2016-11-26T13:47:43.266Z,49.43
2016-11-26T13:48:52.285Z,49.82
2016-11-26T13:50:00.974Z,49.53
2016-11-26T13:51:09.663Z,49.91
2016-11-26T13:52:18.347Z,50.07
2016-11-26T13:53:27.035Z,50.64
2016-11-26T13:54:35.723Z,50.17
2016-11-26T13:55:44.433Z,51.5
2016-11-26T13:56:53.431Z,51.31
2016-11-26T13:58:02.118Z,51.5
2016-11-26T13:59:11.132Z,51.59
2016-11-26T14:00:19.820Z,50.64
2016-11-26T14:01:28.505Z,50.64
2016-11-26T14:02:37.195Z,51.03
2016-11-26T14:03:45.924Z,51.31
2016-11-26T14:04:54.615Z,50.36
2016-11-26T14:06:03.301Z,50.55
2016-11-26T14:07:12.039Z,50.26
2016-11-26T14:08:20.727Z,50.86
2016-11-26T14:09:29.417Z,50.83
2016-11-26T14:10:38.106Z,50.45
2016-11-26T14:11:46.792Z,50.74
2016-11-26T14:12:55.486Z,51.21
2016-11-26T14:14:04.177Z,50.83
2016-11-26T14:15:12.970Z,50.36
2016-11-26T14:16:21.659Z,50.83
2016-11-26T14:17:30.357Z,51.4
2016-11-26T14:18:39.045Z,51.78
2016-11-26T14:19:47.732Z,52.16
2016-11-26T14:20:56.416Z,51.87
2016-11-26T14:22:05.106Z,51.97
2016-11-26T14:23:13.792Z,51.68
2016-11-26T14:24:22.483Z,52.16
2016-11-26T14:25:31.171Z,52.26
2016-11-26T14:26:39.856Z,53.3
2016-11-26T14:27:48.541Z,52.92
2016-11-26T14:28:57.232Z,53.39
2016-11-26T14:30:05.941Z,53.96
2016-11-26T14:31:14.629Z,53.87
2016-11-26T14:32:23.321Z,53.77
2016-11-26T14:33:32.005Z,54.06
2016-11-26T14:34:40.698Z,53.77
2016-11-26T14:35:49.383Z,53.84
2016-11-26T14:36:58.069Z,54.53
2016-11-26T14:38:06.757Z,54.13
2016-11-26T14:39:15.765Z,54.25
2016-11-26T14:40:24.454Z,54.79
2016-11-26T14:41:33.142Z,55.36
2016-11-26T14:42:41.833Z,55.26
2016-11-26T14:43:50.527Z,55.45
2016-11-26T14:44:59.217Z,55.17
2016-11-26T14:46:07.907Z,55.36
2016-11-26T14:47:16.594Z,55.26
2016-11-26T14:48:25.283Z,54.98